Time;durP1;ratioP1;P1;durP2;ratioP2;P2;SDS_P1;SDS_P2;PMS_P1;PMS_P2;Temp;Humidity;BMP_temperature;BMP_pressure;BME280_temperature;BME280_humidity;BME280_pressure;Samples;Min_cycle;Max_cycle;Signal;HPM_P1;HPM_P2
2022/02/12 00:01:40;;;;;;;42.38;18.80;;;;;;;;;;10532280;28;20069;-75
2022/02/12 00:06:41;;;;;;;31.80;17.02;;;;;;;;;;10532255;28;20054;-75
2022/02/12 00:11:41;;;;;;;40.08;17.77;;;;;;;;;;10533017;28;20035;-74
2022/02/12 00:16:41;;;;;;;39.53;19.50;;;;;;;;;;10531889;28;20035;-72
2022/02/12 00:21:42;;;;;;;46.92;22.42;;;;;;;;;;10531301;28;20016;-73
2022/02/12 00:26:42;;;;;;;36.27;19.07;;;;;;;;;;10515845;28;20084;-72
2022/02/12 00:31:42;;;;;;;41.00;19.60;;;;;;;;;;10530600;28;20032;-71
2022/02/12 00:36:42;;;;;;;41.15;19.38;;;;;;;;;;10511212;28;20024;-73
2022/02/12 00:41:43;;;;;;;40.50;18.58;;;;;;;;;;10488687;28;20032;-73
2022/02/12 00:46:43;;;;;;;45.20;19.87;;;;;;;;;;10490101;28;20032;-72
2022/02/12 00:51:43;;;;;;;51.65;21.60;;;;;;;;;;10489613;28;20371;-72
2022/02/12 00:56:44;;;;;;;41.97;19.77;;;;;;;;;;10488264;28;20059;-75
2022/02/12 01:01:44;;;;;;;31.90;17.05;;;;;;;;;;10488538;28;20032;-72
2022/02/12 01:06:46;;;;;;;36.55;18.85;;;;;;;;;;10489951;28;20503;-73
2022/02/12 01:11:46;;;;;;;38.37;18.27;;;;;;;;;;10489184;28;20032;-73
2022/02/12 01:16:46;;;;;;;38.55;18.50;;;;;;;;;;10494535;28;20048;-76
2022/02/12 01:21:47;;;;;;;35.38;20.45;;;;;;;;;;10513722;28;20581;-79
2022/02/12 01:26:48;;;;;;;41.90;19.75;;;;;;;;;;10492447;28;20492;-75
2022/02/12 01:31:49;;;;;;;40.28;22.25;;;;;;;;;;10487642;28;20246;-73
2022/02/12 01:36:49;;;;;;;54.40;24.80;;;;;;;;;;10487833;28;20141;-73
2022/02/12 01:41:49;;;;;;;61.03;23.98;;;;;;;;;;10487544;28;20036;-79
2022/02/12 01:46:50;;;;;;;52.87;24.73;;;;;;;;;;10488310;28;20124;-75
2022/02/12 01:51:50;;;;;;;46.72;23.73;;;;;;;;;;10488583;28;20024;-76
2022/02/12 01:56:50;;;;;;;48.22;25.33;;;;;;;;;;10488612;28;20512;-73
2022/02/12 02:01:51;;;;;;;50.10;25.30;;;;;;;;;;10487153;28;20502;-77
2022/02/12 02:06:51;;;;;;;44.22;20.75;;;;;;;;;;10486759;28;20025;-75
2022/02/12 02:11:52;;;;;;;50.53;23.33;;;;;;;;;;10487391;28;20040;-74
2022/02/12 02:16:52;;;;;;;48.80;22.75;;;;;;;;;;10488673;28;20016;-73
2022/02/12 02:21:55;;;;;;;51.03;23.38;;;;;;;;;;10486670;28;20510;-72
2022/02/12 02:27:15;;;;;;;50.88;21.83;;;;;;;;;;10486784;28;20121;-73
2022/02/12 02:32:17;;;;;;;46.60;23.13;;;;;;;;;;10486278;28;20522;-77
2022/02/12 02:37:18;;;;;;;54.00;24.85;;;;;;;;;;10514503;28;20051;-73
2022/02/12 02:42:18;;;;;;;42.13;21.40;;;;;;;;;;10528328;28;20115;-72
2022/02/12 02:47:40;;;;;;;48.83;21.15;;;;;;;;;;10527915;28;20026;-74
2022/02/12 02:58:00;;;;;;;46.50;21.75;;;;;;;;;;10532130;28;20048;-73
2022/02/12 03:03:00;;;;;;;32.03;18.52;;;;;;;;;;10535061;28;20024;-73
2022/02/12 03:08:00;;;;;;;41.85;23.08;;;;;;;;;;10536386;28;20034;-73
2022/02/12 03:13:00;;;;;;;40.22;19.70;;;;;;;;;;10534282;28;20077;-73
2022/02/12 03:18:01;;;;;;;37.60;18.10;;;;;;;;;;10534710;28;20426;-72
2022/02/12 03:23:01;;;;;;;22.85;13.25;;;;;;;;;;10534630;28;20180;-77
2022/02/12 03:28:02;;;;;;;29.50;14.02;;;;;;;;;;10534241;28;20475;-73
2022/02/12 03:33:03;;;;;;;25.38;14.20;;;;;;;;;;10534155;28;20031;-72
2022/02/12 03:38:06;;;;;;;25.70;13.50;;;;;;;;;;10533534;28;20031;-77
2022/02/12 03:43:07;;;;;;;20.67;10.02;;;;;;;;;;10533587;28;20035;-77
2022/02/12 03:48:07;;;;;;;16.80;9.43;;;;;;;;;;10533789;28;20027;-78
2022/02/12 03:53:08;;;;;;;24.75;10.32;;;;;;;;;;10534899;28;20051;-78
2022/02/12 03:58:11;;;;;;;13.85;8.07;;;;;;;;;;10533247;28;20173;-74
2022/02/12 04:03:12;;;;;;;18.15;7.95;;;;;;;;;;10534142;28;20035;-79
2022/02/12 04:08:13;;;;;;;20.17;8.10;;;;;;;;;;10538184;28;20032;-78
2022/02/12 04:13:13;;;;;;;13.13;7.05;;;;;;;;;;10531892;28;20031;-76
2022/02/12 04:18:15;;;;;;;14.82;8.65;;;;;;;;;;10532458;28;20030;-79
2022/02/12 04:23:15;;;;;;;16.30;7.65;;;;;;;;;;10532301;28;20171;-70
2022/02/12 04:28:15;;;;;;;15.95;8.35;;;;;;;;;;10531926;28;20380;-75
2022/02/12 04:33:16;;;;;;;17.95;7.15;;;;;;;;;;10531440;28;20030;-72
2022/02/12 04:38:16;;;;;;;12.40;7.55;;;;;;;;;;10531256;28;20081;-78
2022/02/12 04:43:16;;;;;;;18.50;9.65;;;;;;;;;;10530965;28;20028;-76
2022/02/12 04:48:16;;;;;;;23.17;10.50;;;;;;;;;;10532574;28;20020;-74
2022/02/12 04:53:17;;;;;;;34.03;15.00;;;;;;;;;;10530964;28;20048;-72
2022/02/12 04:58:17;;;;;;;31.17;17.25;;;;;;;;;;10530708;28;20035;-73
2022/02/12 05:03:17;;;;;;;35.33;18.87;;;;;;;;;;10530254;28;20028;-80
2022/02/12 05:08:18;;;;;;;38.00;19.53;;;;;;;;;;10530173;28;20073;-73
2022/02/12 05:13:18;;;;;;;56.40;23.48;;;;;;;;;;10529978;28;20065;-74
2022/02/12 05:18:18;;;;;;;46.13;24.13;;;;;;;;;;10550261;22;20570;-74
2022/02/12 05:23:18;;;;;;;52.72;26.48;;;;;;;;;;10506474;28;20028;-74
2022/02/12 05:28:19;;;;;;;60.95;26.75;;;;;;;;;;10488064;28;20028;-74
2022/02/12 05:33:20;;;;;;;56.58;28.15;;;;;;;;;;10486951;28;20024;-75
2022/02/12 05:38:20;;;;;;;60.45;31.55;;;;;;;;;;10487422;28;20027;-72
2022/02/12 05:43:20;;;;;;;58.70;26.70;;;;;;;;;;10487051;28;20021;-72
2022/02/12 05:48:21;;;;;;;67.43;29.90;;;;;;;;;;10487140;28;20025;-72
2022/02/12 05:53:21;;;;;;;61.73;29.30;;;;;;;;;;10486907;28;20512;-72
2022/02/12 05:58:22;;;;;;;56.88;30.10;;;;;;;;;;10488514;28;20032;-73
2022/02/12 06:03:22;;;;;;;57.85;28.15;;;;;;;;;;10486775;28;20024;-73
2022/02/12 06:08:23;;;;;;;63.03;28.75;;;;;;;;;;10486977;28;20484;-77
2022/02/12 06:13:23;;;;;;;55.65;26.70;;;;;;;;;;10503720;28;20111;-77
2022/02/12 06:18:23;;;;;;;55.43;27.57;;;;;;;;;;10486996;28;20439;-72
2022/02/12 06:23:24;;;;;;;68.07;26.80;;;;;;;;;;10486148;28;20020;-76
2022/02/12 06:28:24;;;;;;;60.67;26.90;;;;;;;;;;10487766;28;20028;-77
2022/02/12 06:33:25;;;;;;;51.30;26.23;;;;;;;;;;10491755;28;20562;-78
2022/02/12 06:38:25;;;;;;;53.45;23.52;;;;;;;;;;10494191;28;20503;-76
2022/02/12 06:43:25;;;;;;;47.83;23.70;;;;;;;;;;10494085;28;20488;-73
2022/02/12 06:48:26;;;;;;;45.70;24.17;;;;;;;;;;10476867;28;20024;-72
2022/02/12 06:53:26;;;;;;;43.50;22.73;;;;;;;;;;10521466;23;20159;-76
2022/02/12 06:58:26;;;;;;;48.57;21.13;;;;;;;;;;10536532;28;20073;-80
2022/02/12 07:03:27;;;;;;;41.67;20.17;;;;;;;;;;10535566;28;20499;-71
2022/02/12 07:08:27;;;;;;;41.55;20.20;;;;;;;;;;10534523;28;20028;-74
2022/02/12 07:13:27;;;;;;;33.63;15.82;;;;;;;;;;10533734;28;20030;-78
2022/02/12 07:18:28;;;;;;;37.80;16.02;;;;;;;;;;10534041;28;20028;-76
2022/02/12 07:23:28;;;;;;;26.65;13.55;;;;;;;;;;10513778;28;20472;-73
2022/02/12 07:28:30;;;;;;;31.63;17.63;;;;;;;;;;10491184;28;20582;-77
2022/02/12 07:33:30;;;;;;;32.65;14.80;;;;;;;;;;10492008;28;20063;-71
2022/02/12 07:38:31;;;;;;;26.63;12.63;;;;;;;;;;10492982;28;20511;-77
2022/02/12 07:43:31;;;;;;;25.38;12.60;;;;;;;;;;10491034;28;20028;-74
2022/02/12 07:48:32;;;;;;;21.17;10.70;;;;;;;;;;10491052;28;20032;-74
2022/02/12 07:53:32;;;;;;;35.20;10.93;;;;;;;;;;10490720;28;20048;-71
2022/02/12 07:58:32;;;;;;;25.60;10.30;;;;;;;;;;10491713;28;20028;-70
2022/02/12 08:03:33;;;;;;;19.05;9.93;;;;;;;;;;10490670;28;20033;-70
2022/02/12 08:08:33;;;;;;;22.42;8.82;;;;;;;;;;10491814;28;20028;-73
2022/02/12 08:13:33;;;;;;;13.30;8.30;;;;;;;;;;10529921;28;20498;-78
2022/02/12 08:18:33;;;;;;;17.55;7.65;;;;;;;;;;10529930;28;20119;-77
2022/02/12 08:23:34;;;;;;;15.18;7.50;;;;;;;;;;10532875;28;20035;-71
2022/02/12 08:28:34;;;;;;;14.90;6.45;;;;;;;;;;10531364;28;20082;-72
2022/02/12 08:33:34;;;;;;;13.23;5.67;;;;;;;;;;10530352;28;20020;-73
2022/02/12 08:38:35;;;;;;;12.18;6.18;;;;;;;;;;10530197;28;20028;-71
2022/02/12 08:43:35;;;;;;;16.93;5.83;;;;;;;;;;10532677;28;20026;-78
2022/02/12 08:48:35;;;;;;;7.90;5.55;;;;;;;;;;10530200;28;20415;-73
2022/02/12 08:53:35;;;;;;;23.90;6.60;;;;;;;;;;10504236;28;20427;-76
2022/02/12 08:58:36;;;;;;;24.92;5.47;;;;;;;;;;10488170;28;20020;-74
2022/02/12 09:03:36;;;;;;;12.27;7.20;;;;;;;;;;10487669;28;20440;-76
2022/02/12 09:08:36;;;;;;;8.97;5.60;;;;;;;;;;10506021;28;20074;-73
2022/02/12 09:13:37;;;;;;;11.18;5.43;;;;;;;;;;10526565;28;20023;-76
2022/02/12 09:18:37;;;;;;;16.67;5.70;;;;;;;;;;10526735;28;20090;-72
2022/02/12 09:23:37;;;;;;;8.43;4.70;;;;;;;;;;10532159;28;20028;-75
2022/02/12 09:28:37;;;;;;;11.23;5.55;;;;;;;;;;10504703;28;20027;-78
2022/02/12 09:33:38;;;;;;;11.18;4.88;;;;;;;;;;10513394;28;20031;-71
2022/02/12 09:38:38;;;;;;;12.03;4.67;;;;;;;;;;10511661;28;20050;-73
2022/02/12 09:43:39;;;;;;;7.53;4.20;;;;;;;;;;10487180;28;20496;-73
2022/02/12 09:48:40;;;;;;;7.32;4.03;;;;;;;;;;10502574;28;20446;-71
2022/02/12 09:53:40;;;;;;;6.15;4.10;;;;;;;;;;10528275;28;20068;-77
2022/02/12 09:58:41;;;;;;;18.23;5.40;;;;;;;;;;10529627;28;20024;-76
2022/02/12 10:03:41;;;;;;;11.03;4.47;;;;;;;;;;10528226;28;20024;-75
2022/02/12 10:09:01;;;;;;;8.82;3.72;;;;;;;;;;10518098;28;20491;-71
2022/02/12 10:14:29;;;;;;;6.78;4.07;;;;;;;;;;10494318;28;20021;-71
2022/02/12 10:19:38;;;;;;;9.57;4.28;;;;;;;;;;10493093;28;20364;-73
2022/02/12 10:24:48;;;;;;;8.57;4.15;;;;;;;;;;10477737;28;20036;-72
2022/02/12 10:29:48;;;;;;;10.70;4.05;;;;;;;;;;10509230;28;20489;-75
2022/02/12 10:34:49;;;;;;;10.10;4.97;;;;;;;;;;10535469;28;20026;-73
2022/02/12 10:39:51;;;;;;;5.82;3.75;;;;;;;;;;10529524;28;20031;-72
2022/02/12 10:44:52;;;;;;;9.23;4.45;;;;;;;;;;10506996;28;20407;-72
2022/02/12 10:49:52;;;;;;;13.18;3.80;;;;;;;;;;10533106;28;20034;-78
2022/02/12 10:54:53;;;;;;;14.63;4.77;;;;;;;;;;10524866;28;20060;-79
2022/02/12 10:59:54;;;;;;;14.93;4.22;;;;;;;;;;10518103;28;20073;-72
2022/02/12 11:04:57;;;;;;;17.45;3.20;;;;;;;;;;10532803;28;20105;-73
2022/02/12 11:09:57;;;;;;;14.63;4.22;;;;;;;;;;10527547;28;20028;-76
2022/02/12 11:14:58;;;;;;;10.18;5.13;;;;;;;;;;10526809;28;20770;-79
2022/02/12 11:19:59;;;;;;;13.40;3.15;;;;;;;;;;10527401;28;20012;-73
2022/02/12 11:25:00;;;;;;;5.53;3.33;;;;;;;;;;10529651;28;20020;-79
2022/02/12 11:30:14;;;;;;;9.90;4.30;;;;;;;;;;10530667;28;20020;-78
2022/02/12 11:35:18;;;;;;;11.82;3.95;;;;;;;;;;10505116;28;20069;-73
2022/02/12 11:40:30;;;;;;;6.70;3.80;;;;;;;;;;10489964;28;20174;-77
2022/02/12 11:45:37;;;;;;;6.70;4.28;;;;;;;;;;10488499;28;20032;-76
2022/02/12 11:51:17;;;;;;;7.30;3.75;;;;;;;;;;10489806;28;20025;-75
2022/02/12 11:56:17;;;;;;;9.23;3.80;;;;;;;;;;10340243;28;20277;-75
2022/02/12 12:01:21;;;;;;;10.45;4.97;;;;;;;;;;10451793;28;20031;-72
2022/02/12 12:06:21;;;;;;;7.25;4.45;;;;;;;;;;10489513;28;20019;-74
2022/02/12 12:11:21;;;;;;;11.80;5.47;;;;;;;;;;10489283;28;20021;-71
2022/02/12 12:16:23;;;;;;;11.95;5.30;;;;;;;;;;10488991;28;20112;-74
2022/02/12 12:21:23;;;;;;;11.75;5.70;;;;;;;;;;10488683;28;20027;-74
2022/02/12 12:26:33;;;;;;;8.80;5.37;;;;;;;;;;10489981;28;20027;-72
2022/02/12 12:31:34;;;;;;;13.73;5.25;;;;;;;;;;10471435;28;20028;-70
2022/02/12 12:36:38;;;;;;;8.55;5.35;;;;;;;;;;10516513;28;20028;-74
2022/02/12 12:41:40;;;;;;;9.65;4.97;;;;;;;;;;10528579;28;20035;-71
2022/02/12 12:46:45;;;;;;;7.03;4.13;;;;;;;;;;10528342;28;20020;-75
2022/02/12 12:51:50;;;;;;;7.75;4.63;;;;;;;;;;10512617;28;20016;-76
2022/02/12 12:56:50;;;;;;;13.07;5.97;;;;;;;;;;10528873;28;20062;-76
2022/02/12 13:01:54;;;;;;;8.80;4.50;;;;;;;;;;10527236;28;20031;-76
2022/02/12 13:06:55;;;;;;;8.48;4.28;;;;;;;;;;10526296;28;20070;-75
2022/02/12 13:11:55;;;;;;;8.18;3.45;;;;;;;;;;10518226;28;20017;-76
2022/02/12 13:16:57;;;;;;;5.43;3.63;;;;;;;;;;10487764;28;20152;-77
2022/02/12 13:21:57;;;;;;;8.73;3.17;;;;;;;;;;10526968;28;20748;-75
2022/02/12 13:26:58;;;;;;;7.63;3.37;;;;;;;;;;10528734;28;20118;-76
2022/02/12 13:32:04;;;;;;;6.57;3.53;;;;;;;;;;10485754;28;20202;-76
2022/02/12 13:37:06;;;;;;;7.93;3.80;;;;;;;;;;10517566;28;20023;-75
2022/02/12 13:42:06;;;;;;;7.38;4.00;;;;;;;;;;10528048;28;20057;-76
2022/02/12 13:47:07;;;;;;;9.77;4.05;;;;;;;;;;10526058;28;20040;-76
2022/02/12 13:52:08;;;;;;;6.60;3.47;;;;;;;;;;10528795;28;20089;-78
2022/02/12 13:57:08;;;;;;;6.07;3.57;;;;;;;;;;10526939;28;20105;-77
2022/02/12 14:02:09;;;;;;;6.38;3.28;;;;;;;;;;10526515;28;20115;-78
2022/02/12 14:07:09;;;;;;;7.95;3.75;;;;;;;;;;10526743;28;20012;-76
2022/02/12 14:12:09;;;;;;;6.53;3.70;;;;;;;;;;10521281;28;20020;-72
2022/02/12 14:17:10;;;;;;;3.50;3.08;;;;;;;;;;10482423;28;20040;-75
2022/02/12 14:22:10;;;;;;;7.28;4.15;;;;;;;;;;10485617;28;20020;-75
2022/02/12 14:27:12;;;;;;;6.15;3.78;;;;;;;;;;10527308;28;20456;-79
2022/02/12 14:32:12;;;;;;;9.70;3.78;;;;;;;;;;10526670;28;20471;-78
2022/02/12 14:37:12;;;;;;;5.43;2.93;;;;;;;;;;10526845;28;20027;-76
2022/02/12 14:42:14;;;;;;;9.48;3.03;;;;;;;;;;10526651;28;20028;-77
2022/02/12 14:47:14;;;;;;;10.23;3.20;;;;;;;;;;10526802;28;20024;-77
2022/02/12 14:52:15;;;;;;;11.73;3.72;;;;;;;;;;10525880;28;20012;-70
2022/02/12 14:57:15;;;;;;;8.13;3.93;;;;;;;;;;10534400;28;20056;-76
2022/02/12 15:02:17;;;;;;;7.80;3.50;;;;;;;;;;10533814;28;20259;-72
2022/02/12 15:07:18;;;;;;;3.95;1.70;;;;;;;;;;10533677;28;20036;-75
2022/02/12 15:12:19;;;;;;;5.95;1.55;;;;;;;;;;10534353;28;20487;-77
2022/02/12 15:17:19;;;;;;;5.15;2.00;;;;;;;;;;10511253;28;20503;-71
2022/02/12 15:22:19;;;;;;;17.27;2.20;;;;;;;;;;10474520;28;20035;-72
2022/02/12 15:27:20;;;;;;;3.30;1.73;;;;;;;;;;10489608;28;20314;-75
2022/02/12 15:32:20;;;;;;;5.63;1.73;;;;;;;;;;10522651;28;20020;-75
2022/02/12 15:37:21;;;;;;;6.15;2.30;;;;;;;;;;10532176;28;20092;-76
2022/02/12 15:42:21;;;;;;;9.05;3.20;;;;;;;;;;10528058;28;20031;-77
2022/02/12 15:47:22;;;;;;;6.75;1.85;;;;;;;;;;10532613;28;20024;-78
2022/02/12 15:52:22;;;;;;;4.40;2.50;;;;;;;;;;10515566;28;20348;-74
2022/02/12 15:57:22;;;;;;;9.88;2.47;;;;;;;;;;10489031;28;20052;-76
2022/02/12 16:02:23;;;;;;;3.30;2.23;;;;;;;;;;10491023;28;20025;-76
2022/02/12 16:07:23;;;;;;;6.57;3.50;;;;;;;;;;10489330;28;20412;-76
2022/02/12 16:12:23;;;;;;;6.70;2.88;;;;;;;;;;10500439;28;20032;-76
2022/02/12 16:17:24;;;;;;;7.60;2.28;;;;;;;;;;10531321;28;20028;-76
2022/02/12 16:22:24;;;;;;;6.53;2.88;;;;;;;;;;10530458;28;20032;-75
2022/02/12 16:27:26;;;;;;;8.68;3.35;;;;;;;;;;10515834;28;20029;-75
2022/02/12 16:32:27;;;;;;;12.40;3.70;;;;;;;;;;10488916;28;20023;-75
2022/02/12 16:37:28;;;;;;;8.30;3.45;;;;;;;;;;10492618;28;20262;-79
2022/02/12 16:42:28;;;;;;;17.85;3.38;;;;;;;;;;10488987;28;20032;-78
2022/02/12 16:47:28;;;;;;;7.83;3.17;;;;;;;;;;10487841;28;20427;-76
2022/02/12 16:52:29;;;;;;;10.75;4.40;;;;;;;;;;10509621;28;20036;-78
2022/02/12 16:57:31;;;;;;;8.98;4.30;;;;;;;;;;10528521;28;20128;-74
2022/02/12 17:02:31;;;;;;;18.23;4.80;;;;;;;;;;10530694;28;20024;-72
2022/02/12 17:07:34;;;;;;;12.30;4.88;;;;;;;;;;10529245;28;20032;-71
2022/02/12 17:12:34;;;;;;;11.85;5.45;;;;;;;;;;10514650;28;20027;-74
2022/02/12 17:17:38;;;;;;;14.37;4.67;;;;;;;;;;10527487;28;20038;-75
2022/02/12 17:22:38;;;;;;;9.40;5.10;;;;;;;;;;10537043;28;20028;-74
2022/02/12 17:27:39;;;;;;;16.17;5.10;;;;;;;;;;10532957;28;20481;-72
2022/02/12 17:32:39;;;;;;;11.83;5.47;;;;;;;;;;10539195;28;20040;-76
2022/02/12 17:37:40;;;;;;;18.48;6.68;;;;;;;;;;10530307;28;20040;-71
2022/02/12 17:42:41;;;;;;;17.52;7.35;;;;;;;;;;10510525;28;20115;-76
2022/02/12 17:47:41;;;;;;;25.67;10.48;;;;;;;;;;10527422;28;20420;-73
2022/02/12 17:52:42;;;;;;;29.77;11.38;;;;;;;;;;10526618;28;20035;-77
2022/02/12 17:57:43;;;;;;;24.27;10.40;;;;;;;;;;10527357;28;20117;-76
2022/02/12 18:02:43;;;;;;;19.63;12.38;;;;;;;;;;10526753;28;20864;-72
2022/02/12 18:07:43;;;;;;;23.13;11.57;;;;;;;;;;10527808;28;20107;-77
2022/02/12 18:12:44;;;;;;;23.73;10.93;;;;;;;;;;10523864;28;20035;-75
2022/02/12 18:17:44;;;;;;;26.85;10.98;;;;;;;;;;10484429;28;20115;-75
2022/02/12 18:22:44;;;;;;;23.27;10.50;;;;;;;;;;10517040;28;20020;-75
2022/02/12 18:27:45;;;;;;;27.90;11.05;;;;;;;;;;10528401;28;20486;-76
2022/02/12 18:32:45;;;;;;;27.55;11.35;;;;;;;;;;10535287;28;20401;-76
2022/02/12 18:37:48;;;;;;;30.60;13.83;;;;;;;;;;10537133;28;20617;-71
2022/02/12 18:42:48;;;;;;;32.47;14.77;;;;;;;;;;10512821;28;20028;-75
2022/02/12 18:47:48;;;;;;;36.37;14.53;;;;;;;;;;10493571;28;20485;-74
2022/02/12 18:52:50;;;;;;;29.40;12.98;;;;;;;;;;10492190;28;20029;-76
2022/02/12 18:57:52;;;;;;;25.42;11.68;;;;;;;;;;10492412;28;20123;-77
2022/02/12 19:02:53;;;;;;;30.55;12.98;;;;;;;;;;10517004;28;20495;-77
2022/02/12 19:07:53;;;;;;;33.60;13.05;;;;;;;;;;10534234;28;20486;-75
2022/02/12 19:12:54;;;;;;;28.35;11.93;;;;;;;;;;10533439;28;20016;-73
2022/02/12 19:17:54;;;;;;;28.80;12.70;;;;;;;;;;10571993;22;20049;-76
2022/02/12 19:23:00;;;;;;;26.65;11.32;;;;;;;;;;10534005;28;20020;-72
2022/02/12 19:28:03;;;;;;;26.42;11.88;;;;;;;;;;10533007;28;20128;-72
2022/02/12 19:33:03;;;;;;;29.33;10.90;;;;;;;;;;10532447;28;20016;-71
2022/02/12 19:38:08;;;;;;;25.65;10.52;;;;;;;;;;10512952;28;20028;-72
2022/02/12 19:43:08;;;;;;;31.55;12.45;;;;;;;;;;10489396;28;20029;-72
2022/02/12 19:48:08;;;;;;;32.85;12.90;;;;;;;;;;10478615;28;20020;-73
2022/02/12 19:53:09;;;;;;;27.67;14.77;;;;;;;;;;10490601;28;20032;-73
2022/02/12 19:58:09;;;;;;;29.45;13.55;;;;;;;;;;10495156;28;20054;-77
2022/02/12 20:03:09;;;;;;;32.05;14.13;;;;;;;;;;10532471;28;20077;-71
2022/02/12 20:08:11;;;;;;;27.33;13.52;;;;;;;;;;10534551;28;20028;-77
2022/02/12 20:13:11;;;;;;;19.70;11.43;;;;;;;;;;10531261;28;20024;-76
2022/02/12 20:18:12;;;;;;;20.48;8.75;;;;;;;;;;10530733;28;20056;-75
2022/02/12 20:23:12;;;;;;;20.83;8.45;;;;;;;;;;10531156;28;20024;-79
2022/02/12 20:28:13;;;;;;;15.45;8.57;;;;;;;;;;10530486;28;20089;-75
2022/02/12 20:33:13;;;;;;;12.38;7.20;;;;;;;;;;10504819;28;20028;-74
2022/02/12 20:38:14;;;;;;;15.20;8.00;;;;;;;;;;10495891;28;20072;-75
2022/02/12 20:43:14;;;;;;;17.47;9.63;;;;;;;;;;10489848;28;20028;-73
2022/02/12 20:48:15;;;;;;;25.33;14.27;;;;;;;;;;10489114;28;20424;-77
2022/02/12 20:53:15;;;;;;;24.15;13.57;;;;;;;;;;10487638;28;20024;-71
2022/02/12 20:58:15;;;;;;;21.20;12.95;;;;;;;;;;10488494;28;20476;-75
2022/02/12 21:03:16;;;;;;;21.20;13.73;;;;;;;;;;10488576;28;20020;-75
2022/02/12 21:08:16;;;;;;;23.42;13.95;;;;;;;;;;10487495;28;20362;-77
2022/02/12 21:13:16;;;;;;;24.88;15.75;;;;;;;;;;10515653;28;20021;-75
2022/02/12 21:18:18;;;;;;;28.98;17.27;;;;;;;;;;10506600;28;20060;-76
2022/02/12 21:23:18;;;;;;;32.25;16.73;;;;;;;;;;10486750;28;20021;-74
2022/02/12 21:28:20;;;;;;;32.65;18.15;;;;;;;;;;10488338;28;20024;-76
2022/02/12 21:33:20;;;;;;;29.02;18.00;;;;;;;;;;10487107;28;20484;-76
2022/02/12 21:38:20;;;;;;;35.50;20.67;;;;;;;;;;10528349;28;20028;-76
2022/02/12 21:43:21;;;;;;;36.33;19.73;;;;;;;;;;10528367;28;20113;-76
2022/02/12 21:48:21;;;;;;;36.00;20.08;;;;;;;;;;10503787;28;20067;-76
2022/02/12 21:53:25;;;;;;;34.75;18.33;;;;;;;;;;10491511;28;20024;-78
2022/02/12 21:58:27;;;;;;;25.98;16.67;;;;;;;;;;10528079;28;20028;-78
2022/02/12 22:03:27;;;;;;;36.58;18.85;;;;;;;;;;10528036;28;20024;-76
2022/02/12 22:08:27;;;;;;;34.85;16.88;;;;;;;;;;10527600;28;20024;-76
2022/02/12 22:13:28;;;;;;;28.35;16.95;;;;;;;;;;10529232;28;20028;-77
2022/02/12 22:18:28;;;;;;;27.02;16.27;;;;;;;;;;10528578;28;20064;-76
2022/02/12 22:23:29;;;;;;;32.85;16.55;;;;;;;;;;10502938;28;20579;-75
2022/02/12 22:28:29;;;;;;;32.85;18.42;;;;;;;;;;10487308;28;20496;-77
2022/02/12 22:33:30;;;;;;;30.30;17.03;;;;;;;;;;10486835;28;20045;-76
2022/02/12 22:38:31;;;;;;;30.67;16.73;;;;;;;;;;10525635;28;20032;-73
2022/02/12 22:43:31;;;;;;;28.30;14.63;;;;;;;;;;10527036;28;20487;-72
2022/02/12 22:48:41;;;;;;;27.27;14.38;;;;;;;;;;10526585;28;20023;-75
2022/02/12 22:53:42;;;;;;;27.55;15.38;;;;;;;;;;10526649;28;20471;-71
2022/02/12 22:58:44;;;;;;;29.92;16.55;;;;;;;;;;10527287;28;20031;-75
2022/02/12 23:03:45;;;;;;;26.20;15.45;;;;;;;;;;10532737;28;20020;-75
2022/02/12 23:08:55;;;;;;;29.33;15.70;;;;;;;;;;10526548;28;20081;-77
2022/02/12 23:13:56;;;;;;;23.27;14.05;;;;;;;;;;10487576;28;20043;-73
2022/02/12 23:18:59;;;;;;;24.38;14.05;;;;;;;;;;10499589;28;20081;-76
2022/02/12 23:24:00;;;;;;;30.23;14.95;;;;;;;;;;10533235;28;20046;-76
2022/02/12 23:29:01;;;;;;;22.25;13.43;;;;;;;;;;10533278;28;20024;-72
2022/02/12 23:34:05;;;;;;;27.23;13.00;;;;;;;;;;10534260;28;20525;-72
2022/02/12 23:39:05;;;;;;;19.50;10.60;;;;;;;;;;10533567;28;20399;-71
2022/02/12 23:44:06;;;;;;;21.73;12.93;;;;;;;;;;10532701;28;20020;-77
2022/02/12 23:49:06;;;;;;;21.30;13.85;;;;;;;;;;10533318;28;20020;-76
2022/02/12 23:54:06;;;;;;;20.50;12.70;;;;;;;;;;10532347;28;20020;-75
2022/02/12 23:59:07;;;;;;;23.90;12.32;;;;;;;;;;10533572;28;20085;-72
